Time;durP1;ratioP1;P1;durP2;ratioP2;P2;SDS_P1;SDS_P2;PMS_P1;PMS_P2;Temp;Humidity;BMP_temperature;BMP_pressure;BME280_temperature;BME280_humidity;BME280_pressure;Samples;Min_cycle;Max_cycle;Signal;HPM_P1;HPM_P2
2022/01/26 00:00:30;;;;;;;24.10;18.23;;;6.90;99.90;;;;;;5084799;28;20254;-77
2022/01/26 00:05:50;;;;;;;25.02;18.25;;;6.90;99.90;;;;;;5094281;28;20228;-77
2022/01/26 00:08:16;;;;;;;28.83;18.98;;;6.80;99.90;;;;;;5073183;28;20198;-77
2022/01/26 00:10:41;;;;;;;28.33;18.97;;;6.80;99.90;;;;;;5091024;28;20667;-77
2022/01/26 00:13:07;;;;;;;28.33;18.20;;;6.80;99.90;;;;;;5089735;28;20585;-77
2022/01/26 00:15:33;;;;;;;26.93;17.40;;;6.80;99.90;;;;;;5074257;28;20577;-77
2022/01/26 00:17:58;;;;;;;25.40;16.33;;;6.70;99.90;;;;;;5095122;28;20167;-77
2022/01/26 00:20:36;;;;;;;28.63;18.17;;;6.70;99.90;;;;;;5094821;28;20636;-77
2022/01/26 00:26:01;;;;;;;27.77;17.60;;;6.70;99.90;;;;;;5076897;28;20250;-77
2022/01/26 00:28:58;;;;;;;20.20;15.30;;;6.70;99.90;;;;;;5076830;28;20176;-77
2022/01/26 00:38:33;;;;;;;26.60;16.70;;;6.70;99.90;;;;;;5094556;28;20207;-77
2022/01/26 00:40:08;;;;;;;24.05;14.90;;;6.60;99.90;;;;;;5094695;28;20260;-77
2022/01/26 00:42:38;;;;;;;25.67;16.48;;;6.60;99.90;;;;;;5080389;28;20199;-77
2022/01/26 00:45:05;;;;;;;25.73;14.95;;;6.60;99.90;;;;;;5076878;28;20531;-78
2022/01/26 00:47:31;;;;;;;27.80;17.38;;;6.60;99.90;;;;;;5094841;28;20164;-77
2022/01/26 00:50:01;;;;;;;31.77;16.77;;;6.60;99.90;;;;;;5094311;28;20217;-77
2022/01/26 00:52:52;;;;;;;22.80;15.10;;;6.60;99.90;;;;;;5094604;28;20544;-77
2022/01/26 00:55:17;;;;;;;20.02;13.30;;;6.60;99.90;;;;;;5085531;28;20175;-77
2022/01/26 00:57:43;;;;;;;22.95;15.40;;;6.60;99.90;;;;;;5150371;22;20236;-78
2022/01/26 01:00:19;;;;;;;21.90;15.48;;;6.60;99.90;;;;;;5096556;28;20193;-77
2022/01/26 01:02:45;;;;;;;23.63;16.73;;;6.60;99.90;;;;;;5109431;28;20305;-78
2022/01/26 01:05:20;;;;;;;20.93;13.83;;;6.60;99.90;;;;;;5114751;28;20194;-78
2022/01/26 01:07:50;;;;;;;27.08;16.05;;;6.60;99.90;;;;;;5079629;28;20210;-78
2022/01/26 01:10:19;;;;;;;21.13;14.52;;;6.60;99.90;;;;;;5114569;28;20212;-78
2022/01/26 01:12:47;;;;;;;23.48;16.70;;;6.60;99.90;;;;;;5114736;28;20206;-78
2022/01/26 01:15:13;;;;;;;25.65;16.85;;;6.60;99.90;;;;;;5096491;28;20203;-78
2022/01/26 01:17:47;;;;;;;24.25;16.17;;;6.60;99.90;;;;;;5114459;28;20201;-78
2022/01/26 01:30:58;;;;;;;35.00;16.67;;;6.60;99.90;;;;;;5078953;28;20642;-78
2022/01/26 01:33:31;;;;;;;24.70;17.40;;;6.50;99.90;;;;;;5096190;28;21162;-77
2022/01/26 01:35:59;;;;;;;24.10;17.48;;;6.50;99.90;;;;;;5096133;28;20219;-77
2022/01/26 01:38:27;;;;;;;23.98;17.30;;;6.50;99.90;;;;;;5096457;28;20213;-77
2022/01/26 01:40:53;;;;;;;26.10;18.75;;;6.50;99.90;;;;;;5113021;28;20171;-77
2022/01/26 01:43:22;;;;;;;26.87;18.40;;;6.50;99.90;;;;;;5114307;28;20243;-78
2022/01/26 01:45:52;;;;;;;25.65;17.60;;;6.50;99.90;;;;;;5096116;28;20159;-78
2022/01/26 01:48:26;;;;;;;29.60;19.13;;;6.50;99.90;;;;;;5095684;28;20186;-78
2022/01/26 01:50:54;;;;;;;30.10;19.08;;;6.50;99.90;;;;;;5113389;28;20158;-78
2022/01/26 01:53:28;;;;;;;27.83;18.52;;;6.60;99.90;;;;;;5078577;28;20250;-78
2022/01/26 01:55:54;;;;;;;24.30;18.75;;;6.50;99.90;;;;;;5079963;28;20186;-78
2022/01/26 01:58:20;;;;;;;25.67;18.07;;;6.50;99.90;;;;;;5075053;28;20200;-78
2022/01/26 02:00:46;;;;;;;29.20;18.23;;;6.50;99.90;;;;;;5075152;28;20171;-78
2022/01/26 02:03:12;;;;;;;28.20;20.02;;;6.50;99.90;;;;;;5075130;28;20568;-78
2022/01/26 02:05:38;;;;;;;29.23;20.73;;;6.50;99.90;;;;;;5093304;28;20225;-78
2022/01/26 02:08:04;;;;;;;31.03;21.20;;;6.50;99.90;;;;;;5093239;28;20942;-78
2022/01/26 02:10:31;;;;;;;31.40;20.45;;;6.50;99.90;;;;;;5093046;28;20550;-77
2022/01/26 02:13:00;;;;;;;30.25;19.67;;;6.50;99.90;;;;;;5058344;28;20171;-77
2022/01/26 02:15:38;;;;;;;26.08;18.38;;;6.50;99.90;;;;;;5093184;28;20168;-78
2022/01/26 02:56:26;;;;;;;31.60;21.52;;;6.60;99.90;;;;;;5092260;28;20644;-78
2022/01/26 03:06:36;;;;;;;34.57;23.00;;;6.60;99.90;;;;;;5074205;28;20621;-78
2022/01/26 03:09:08;;;;;;;37.63;22.80;;;6.60;99.90;;;;;;5092210;28;20164;-78
2022/01/26 03:11:37;;;;;;;37.53;23.38;;;6.60;99.90;;;;;;5073993;28;20178;-78
2022/01/26 03:14:14;;;;;;;39.40;24.42;;;6.60;99.90;;;;;;5073993;28;20176;-78
2022/01/26 03:16:46;;;;;;;41.05;24.88;;;6.60;99.90;;;;;;5073999;28;20205;-78
2022/01/26 03:35:29;;;;;;;39.80;24.75;;;6.60;99.90;;;;;;5073777;28;20172;-78
2022/01/26 03:37:56;;;;;;;40.70;27.08;;;6.60;99.90;;;;;;5091770;28;20187;-79
2022/01/26 03:40:30;;;;;;;43.80;24.55;;;6.60;99.90;;;;;;5056985;28;20222;-78
2022/01/26 03:42:58;;;;;;;46.90;27.08;;;6.60;99.90;;;;;;5073589;28;20195;-78
2022/01/26 03:45:25;;;;;;;44.35;25.15;;;6.60;99.90;;;;;;5091763;28;20209;-78
2022/01/26 03:47:51;;;;;;;41.80;25.48;;;6.50;99.90;;;;;;5073685;28;20194;-78
2022/01/26 03:50:17;;;;;;;39.20;24.97;;;6.50;99.90;;;;;;5093208;28;20164;-78
2022/01/26 03:52:42;;;;;;;44.80;25.40;;;6.50;99.90;;;;;;5077683;28;20562;-79
2022/01/26 03:55:08;;;;;;;38.87;23.10;;;6.50;99.90;;;;;;5095776;28;20220;-79
2022/01/26 03:57:34;;;;;;;36.88;20.38;;;6.50;99.90;;;;;;5095522;28;20199;-78
2022/01/26 04:00:00;;;;;;;36.27;21.30;;;6.50;99.90;;;;;;5060765;28;20655;-78
2022/01/26 04:02:26;;;;;;;36.60;21.80;;;6.50;99.90;;;;;;5095683;28;20839;-78
2022/01/26 04:04:58;;;;;;;37.97;22.13;;;6.50;99.90;;;;;;5060806;28;20174;-77
2022/01/26 04:07:24;;;;;;;37.13;20.27;;;6.50;99.90;;;;;;5095472;28;20191;-78
2022/01/26 04:09:50;;;;;;;36.63;22.00;;;6.50;99.90;;;;;;5095188;28;20532;-78
2022/01/26 04:12:15;;;;;;;40.20;21.87;;;6.50;99.90;;;;;;5095401;28;20171;-78
2022/01/26 04:14:45;;;;;;;39.33;21.33;;;6.50;99.90;;;;;;5077445;28;20562;-78
2022/01/26 04:17:11;;;;;;;33.80;20.98;;;6.40;99.90;;;;;;5077183;28;20195;-78
2022/01/26 04:19:39;;;;;;;38.60;22.83;;;6.50;99.90;;;;;;5077104;28;20217;-77
2022/01/26 04:24:44;;;;;;;33.23;21.87;;;6.50;99.90;;;;;;5095015;28;20203;-78
2022/01/26 04:29:39;;;;;;;35.15;22.10;;;6.50;99.90;;;;;;5060187;28;20176;-78
2022/01/26 04:32:07;;;;;;;35.87;21.10;;;6.50;99.90;;;;;;5095039;28;20271;-78
2022/01/26 04:34:33;;;;;;;42.20;23.33;;;6.50;99.90;;;;;;5076863;28;20172;-78
2022/01/26 04:37:31;;;;;;;40.53;25.15;;;6.50;99.90;;;;;;5094927;28;20191;-78
2022/01/26 04:39:55;;;;;;;41.78;23.02;;;6.50;99.90;;;;;;5074923;28;20176;-78
2022/01/26 04:42:33;;;;;;;39.60;23.92;;;6.50;99.90;;;;;;5095075;28;20286;-78
2022/01/26 04:45:05;;;;;;;43.70;26.85;;;6.50;99.90;;;;;;5094869;28;20179;-78
2022/01/26 04:47:30;;;;;;;43.97;25.65;;;6.50;99.90;;;;;;5094669;28;20183;-78
2022/01/26 04:49:56;;;;;;;42.23;25.37;;;6.50;99.90;;;;;;5076621;28;20645;-78
2022/01/26 04:52:22;;;;;;;45.70;26.67;;;6.50;99.90;;;;;;5094936;28;20499;-77
2022/01/26 04:54:47;;;;;;;44.07;27.13;;;6.50;99.90;;;;;;5076564;28;20203;-77
2022/01/26 04:57:13;;;;;;;43.57;28.30;;;6.40;99.90;;;;;;5076372;28;20210;-77
2022/01/26 04:59:39;;;;;;;50.07;26.40;;;6.40;99.90;;;;;;5076364;28;20176;-77
2022/01/26 05:02:04;;;;;;;42.47;26.13;;;6.40;99.90;;;;;;5093811;28;20164;-77
2022/01/26 05:04:30;;;;;;;49.50;27.30;;;6.40;99.90;;;;;;5094462;28;20712;-77
2022/01/26 05:06:56;;;;;;;47.63;27.90;;;6.40;99.90;;;;;;5076280;28;20194;-77
2022/01/26 05:09:22;;;;;;;43.00;28.30;;;6.40;99.90;;;;;;5094113;28;20155;-77
2022/01/26 05:11:50;;;;;;;49.10;29.92;;;6.40;99.90;;;;;;5075927;28;20174;-77
2022/01/26 05:14:16;;;;;;;49.30;29.00;;;6.40;99.90;;;;;;5113648;28;20171;-77
2022/01/26 05:16:42;;;;;;;43.80;26.23;;;6.40;99.90;;;;;;5096283;28;20191;-77
2022/01/26 05:19:08;;;;;;;45.03;27.10;;;6.40;99.90;;;;;;5114570;28;20571;-77
2022/01/26 05:21:34;;;;;;;55.43;28.30;;;6.40;99.90;;;;;;5096263;28;20175;-77
2022/01/26 05:24:00;;;;;;;47.75;29.65;;;6.40;99.90;;;;;;5114292;28;20298;-77
2022/01/26 05:26:27;;;;;;;50.72;28.15;;;6.40;99.90;;;;;;5096014;28;20649;-77
2022/01/26 05:28:53;;;;;;;47.70;29.75;;;6.30;99.90;;;;;;5114373;28;20532;-77
2022/01/26 05:31:19;;;;;;;50.07;29.33;;;6.30;99.90;;;;;;5078895;28;20171;-76
2022/01/26 05:33:46;;;;;;;44.42;27.10;;;6.30;99.90;;;;;;5114017;28;20932;-77
2022/01/26 05:36:11;;;;;;;53.93;28.83;;;6.20;99.90;;;;;;5113897;28;20212;-77
2022/01/26 05:38:37;;;;;;;48.67;29.50;;;6.30;99.90;;;;;;5103476;28;20614;-77
2022/01/26 05:41:04;;;;;;;56.53;30.50;;;6.30;99.90;;;;;;5075354;28;20569;-77
2022/01/26 05:43:34;;;;;;;49.40;28.52;;;6.20;99.90;;;;;;5075249;28;20617;-77
2022/01/26 05:46:08;;;;;;;53.97;29.08;;;6.20;99.90;;;;;;5093596;28;20620;-77
2022/01/26 05:48:37;;;;;;;60.28;30.45;;;6.30;99.90;;;;;;5075248;28;20195;-77
2022/01/26 05:51:06;;;;;;;45.97;28.08;;;6.20;99.90;;;;;;5093214;28;20160;-77
2022/01/26 05:53:34;;;;;;;55.08;31.08;;;6.20;99.90;;;;;;5075176;28;20175;-76
2022/01/26 05:56:01;;;;;;;58.42;32.85;;;6.20;99.90;;;;;;5076140;28;20543;-76
2022/01/26 05:58:27;;;;;;;65.10;33.90;;;6.20;99.90;;;;;;5077721;28;20213;-76
2022/01/26 06:00:53;;;;;;;53.55;29.90;;;6.20;99.90;;;;;;5074901;28;20175;-77
2022/01/26 06:03:19;;;;;;;57.60;32.33;;;6.20;99.90;;;;;;5093134;28;20195;-76
2022/01/26 06:05:47;;;;;;;53.20;31.43;;;6.20;99.90;;;;;;5093093;28;20580;-77
2022/01/26 06:08:13;;;;;;;57.20;32.20;;;6.20;99.90;;;;;;5092874;28;20567;-76
2022/01/26 06:10:38;;;;;;;53.60;31.60;;;6.20;99.90;;;;;;5092813;28;20209;-76
2022/01/26 06:13:04;;;;;;;52.73;29.80;;;6.20;99.90;;;;;;5074678;28;20164;-77
2022/01/26 06:15:30;;;;;;;56.60;30.80;;;6.20;99.90;;;;;;5092967;28;20209;-77
2022/01/26 06:17:55;;;;;;;53.57;32.53;;;6.20;99.90;;;;;;5092793;28;20188;-77
2022/01/26 06:20:21;;;;;;;58.17;34.10;;;6.20;99.90;;;;;;5092796;28;20213;-76
2022/01/26 06:22:47;;;;;;;50.10;29.27;;;6.20;99.90;;;;;;5092983;28;20526;-77
2022/01/26 06:25:13;;;;;;;53.10;30.17;;;6.20;99.90;;;;;;5075138;28;20562;-77
2022/01/26 06:27:39;;;;;;;52.77;30.03;;;6.20;99.90;;;;;;5058407;28;20275;-76
2022/01/26 06:30:07;;;;;;;57.42;32.13;;;6.20;99.90;;;;;;5074725;28;20174;-76
2022/01/26 06:32:34;;;;;;;58.03;31.60;;;6.20;99.90;;;;;;5058503;28;20172;-76
2022/01/26 06:35:00;;;;;;;52.17;30.77;;;6.20;99.90;;;;;;5095403;28;20167;-75
2022/01/26 06:37:26;;;;;;;53.33;32.45;;;6.20;99.90;;;;;;5075977;28;20188;-76
2022/01/26 06:39:52;;;;;;;59.20;32.93;;;6.20;99.90;;;;;;5074845;28;20186;-75
2022/01/26 06:42:23;;;;;;;53.80;32.67;;;6.20;99.90;;;;;;5074811;28;20170;-75
2022/01/26 06:49:40;;;;;;;54.93;30.57;;;6.20;99.90;;;;;;5074811;28;20267;-75
2022/01/26 06:52:06;;;;;;;53.70;30.80;;;6.20;99.90;;;;;;5093017;28;20172;-77
2022/01/26 06:54:32;;;;;;;53.38;31.20;;;6.10;99.90;;;;;;5093656;28;20180;-76
2022/01/26 06:56:58;;;;;;;53.03;30.20;;;6.10;99.90;;;;;;5057660;28;20214;-77
2022/01/26 06:59:24;;;;;;;56.40;30.83;;;6.10;99.90;;;;;;5092231;28;20160;-77
2022/01/26 07:01:51;;;;;;;57.30;31.27;;;6.10;99.90;;;;;;5092317;28;20213;-77
2022/01/26 07:04:17;;;;;;;56.30;32.97;;;6.10;99.90;;;;;;5092394;28;20231;-77
2022/01/26 07:06:43;;;;;;;52.70;32.20;;;6.10;99.90;;;;;;5071613;28;20758;-74
2022/01/26 07:09:09;;;;;;;60.17;34.28;;;6.10;99.90;;;;;;5094605;28;20577;-76
2022/01/26 07:11:35;;;;;;;51.30;29.93;;;6.10;99.90;;;;;;5092116;28;20168;-74
2022/01/26 07:14:02;;;;;;;53.90;31.23;;;6.10;99.90;;;;;;5075114;28;20178;-75
2022/01/26 07:21:56;;;;;;;48.53;27.40;;;6.00;99.90;;;;;;5053166;28;20172;-75
2022/01/26 07:24:22;;;;;;;51.67;30.50;;;6.10;99.90;;;;;;5053352;28;20303;-75
2022/01/26 07:26:53;;;;;;;50.03;27.70;;;6.10;99.90;;;;;;5036976;28;20185;-75
2022/01/26 07:29:22;;;;;;;55.25;32.17;;;6.10;99.90;;;;;;5071881;28;20566;-76
2022/01/26 07:31:49;;;;;;;54.33;31.35;;;6.10;99.90;;;;;;5071240;28;20164;-76
2022/01/26 07:34:16;;;;;;;51.40;29.05;;;6.10;99.90;;;;;;5037221;28;20168;-76
2022/01/26 07:36:44;;;;;;;56.40;33.88;;;6.10;99.90;;;;;;5070901;28;20188;-75
2022/01/26 07:39:15;;;;;;;54.28;30.38;;;6.10;99.90;;;;;;5053739;28;20221;-75
2022/01/26 07:41:40;;;;;;;48.75;30.10;;;6.10;99.90;;;;;;5071664;28;20173;-74
2022/01/26 07:44:06;;;;;;;54.03;30.97;;;6.10;99.90;;;;;;5071095;28;20184;-76
2022/01/26 07:46:33;;;;;;;53.45;31.33;;;6.10;99.90;;;;;;5053200;28;20169;-75
2022/01/26 07:48:59;;;;;;;56.58;33.70;;;6.10;99.90;;;;;;5071834;28;20743;-76
2022/01/26 07:51:25;;;;;;;53.45;31.33;;;6.10;99.90;;;;;;5070870;28;20516;-76
2022/01/26 07:53:50;;;;;;;57.10;30.47;;;6.10;99.90;;;;;;5053405;28;20172;-74
2022/01/26 07:56:16;;;;;;;58.60;32.97;;;6.10;99.90;;;;;;5059376;28;21224;-74
2022/01/26 07:58:42;;;;;;;58.80;32.43;;;6.10;99.90;;;;;;5073621;28;20212;-74
2022/01/26 08:01:08;;;;;;;55.70;29.70;;;6.10;99.90;;;;;;5052579;28;20670;-75
2022/01/26 08:03:34;;;;;;;59.30;32.57;;;6.10;99.90;;;;;;5052359;28;20971;-75
2022/01/26 08:06:01;;;;;;;62.50;32.90;;;6.10;99.90;;;;;;5052618;28;20985;-75
2022/01/26 08:08:28;;;;;;;54.47;32.30;;;6.10;99.90;;;;;;5070980;28;20196;-75
2022/01/26 08:10:59;;;;;;;60.38;31.65;;;6.10;99.90;;;;;;5053241;28;20164;-74
2022/01/26 08:13:26;;;;;;;54.58;32.40;;;6.10;99.90;;;;;;5054213;28;20177;-74
2022/01/26 08:15:56;;;;;;;52.35;31.73;;;6.10;99.90;;;;;;5071016;28;20524;-74
2022/01/26 08:18:24;;;;;;;63.90;33.78;;;6.10;99.90;;;;;;5071102;28;20694;-74
2022/01/26 08:20:51;;;;;;;58.72;31.83;;;6.10;99.90;;;;;;5059659;28;20176;-73
2022/01/26 08:23:19;;;;;;;58.78;32.00;;;6.10;99.90;;;;;;5065792;28;20195;-73
2022/01/26 08:25:45;;;;;;;55.75;31.80;;;6.10;99.90;;;;;;5059408;28;20172;-74
2022/01/26 08:28:20;;;;;;;57.78;31.77;;;6.20;99.90;;;;;;5038555;28;20618;-82
2022/01/26 08:30:46;;;;;;;63.03;34.20;;;6.20;99.90;;;;;;5060017;28;20164;-82
2022/01/26 08:33:12;;;;;;;66.23;33.90;;;6.20;99.90;;;;;;5080740;28;20171;-83
2022/01/26 08:35:38;;;;;;;54.47;30.17;;;6.20;99.90;;;;;;5064951;28;20188;-81
2022/01/26 08:38:05;;;;;;;60.03;32.97;;;6.20;99.90;;;;;;5083816;28;21347;-82
2022/01/26 08:40:33;;;;;;;66.47;32.90;;;6.20;99.90;;;;;;5082576;28;20168;-82
2022/01/26 08:43:00;;;;;;;52.90;30.10;;;6.30;99.90;;;;;;5082771;28;20687;-81
2022/01/26 08:45:27;;;;;;;63.20;30.83;;;6.30;99.90;;;;;;5080921;28;20168;-82
2022/01/26 08:47:53;;;;;;;55.67;32.63;;;6.30;99.90;;;;;;5076960;28;20187;-82
2022/01/26 08:50:19;;;;;;;56.00;31.90;;;6.30;99.90;;;;;;5078082;28;20168;-82
2022/01/26 08:52:47;;;;;;;53.38;29.80;;;6.30;99.90;;;;;;5084815;28;20637;-83
2022/01/26 08:55:19;;;;;;;62.00;31.90;;;6.30;99.90;;;;;;5086339;28;20229;-84
2022/01/26 08:57:45;;;;;;;59.33;30.42;;;6.40;99.90;;;;;;5082327;28;20258;-83
2022/01/26 09:00:12;;;;;;;53.90;30.13;;;6.40;99.90;;;;;;5074511;28;20164;-83
2022/01/26 09:02:37;;;;;;;57.47;29.02;;;6.40;99.90;;;;;;5080696;28;20559;-83
2022/01/26 09:05:06;;;;;;;57.73;30.77;;;6.40;99.90;;;;;;5075359;28;20168;-84
2022/01/26 09:07:32;;;;;;;50.08;29.45;;;6.50;99.90;;;;;;5074112;28;20582;-82
2022/01/26 09:10:01;;;;;;;55.70;30.85;;;6.50;99.90;;;;;;5072380;28;20505;-84
2022/01/26 09:12:27;;;;;;;56.58;31.00;;;6.50;99.90;;;;;;5072637;28;20667;-83
2022/01/26 09:14:53;;;;;;;49.30;28.10;;;6.50;99.90;;;;;;5074476;28;20176;-83
2022/01/26 09:17:20;;;;;;;51.30;28.25;;;6.50;99.90;;;;;;5073247;28;20187;-82
2022/01/26 09:19:48;;;;;;;49.90;25.48;;;6.50;99.90;;;;;;5072092;28;20557;-81
2022/01/26 09:22:16;;;;;;;47.70;27.25;;;6.50;99.90;;;;;;5088508;28;20511;-82
2022/01/26 09:24:43;;;;;;;50.50;27.50;;;6.50;99.90;;;;;;5093395;28;20877;-82
2022/01/26 09:27:14;;;;;;;47.90;27.17;;;6.60;99.90;;;;;;5075621;28;20264;-82
2022/01/26 09:29:41;;;;;;;45.17;28.10;;;6.60;99.90;;;;;;5092059;28;20669;-83
2022/01/26 09:32:08;;;;;;;48.42;27.83;;;6.60;99.90;;;;;;5055289;28;20541;-82
2022/01/26 09:34:38;;;;;;;46.35;25.45;;;6.60;99.90;;;;;;5055582;28;20173;-82
2022/01/26 09:37:10;;;;;;;43.55;26.23;;;6.60;99.90;;;;;;5038605;28;20199;-82
2022/01/26 09:39:39;;;;;;;47.00;26.77;;;6.70;99.90;;;;;;5067541;28;20319;-82
2022/01/26 09:42:05;;;;;;;46.60;26.83;;;6.70;99.90;;;;;;5073140;28;20191;-83
2022/01/26 09:44:31;;;;;;;44.75;28.20;;;6.70;99.90;;;;;;5055018;28;20200;-81
2022/01/26 09:46:58;;;;;;;49.60;28.27;;;6.70;99.90;;;;;;5072975;28;20285;-82
2022/01/26 09:49:31;;;;;;;57.60;29.83;;;6.70;99.90;;;;;;5054691;28;20160;-82
2022/01/26 09:52:13;;;;;;;52.30;28.83;;;6.80;99.90;;;;;;5054846;28;20172;-81
2022/01/26 09:54:40;;;;;;;54.47;29.75;;;6.80;99.90;;;;;;5072729;28;20168;-80
2022/01/26 09:57:06;;;;;;;55.97;29.17;;;6.80;99.90;;;;;;5054673;28;20261;-80
2022/01/26 09:59:32;;;;;;;57.93;30.70;;;6.80;99.90;;;;;;5072649;28;20551;-83
2022/01/26 10:01:59;;;;;;;54.45;29.33;;;6.80;99.90;;;;;;5054363;28;21149;-83
2022/01/26 10:04:29;;;;;;;52.67;29.23;;;6.80;99.90;;;;;;5054560;28;20207;-84
2022/01/26 10:07:27;;;;;;;54.03;27.60;;;6.70;99.90;;;;;;5054466;28;20596;-83
2022/01/26 10:10:06;;;;;;;45.00;27.42;;;6.70;99.90;;;;;;5055364;28;20196;-84
2022/01/26 10:15:32;;;;;;;51.53;26.15;;;6.70;99.90;;;;;;5072710;28;20203;-83
2022/01/26 10:18:16;;;;;;;50.78;28.98;;;6.70;99.90;;;;;;5073503;28;20207;-83
2022/01/26 10:20:47;;;;;;;52.53;27.40;;;6.70;99.90;;;;;;5054730;28;20533;-83
2022/01/26 10:23:19;;;;;;;51.70;26.63;;;6.70;99.90;;;;;;5054509;28;20235;-83
2022/01/26 10:26:00;;;;;;;53.78;29.42;;;6.70;99.90;;;;;;5080358;28;20176;-83
2022/01/26 10:28:38;;;;;;;55.70;29.00;;;6.70;99.90;;;;;;5075713;28;20240;-83
2022/01/26 10:31:13;;;;;;;52.40;28.95;;;6.70;99.90;;;;;;5049597;28;20175;-83
2022/01/26 10:33:38;;;;;;;53.78;27.60;;;6.70;99.90;;;;;;5074013;28;20185;-84
2022/01/26 10:36:04;;;;;;;52.53;28.43;;;6.70;99.90;;;;;;5066356;28;20627;-84
2022/01/26 10:38:30;;;;;;;54.30;28.57;;;6.70;99.90;;;;;;5074073;28;20200;-83
2022/01/26 10:40:59;;;;;;;61.60;28.45;;;6.70;99.90;;;;;;5074297;28;20167;-83
2022/01/26 10:43:26;;;;;;;53.08;28.10;;;6.70;99.90;;;;;;5092208;28;20202;-83
2022/01/26 10:45:56;;;;;;;55.88;28.25;;;6.70;99.90;;;;;;5092609;28;20167;-83
2022/01/26 10:49:04;;;;;;;60.30;28.77;;;6.70;99.90;;;;;;5074242;28;20770;-84
2022/01/26 10:51:39;;;;;;;55.58;29.13;;;6.70;99.90;;;;;;5056968;28;20214;-84
2022/01/26 10:54:12;;;;;;;56.58;30.30;;;6.70;99.90;;;;;;5045929;28;20174;-83
2022/01/26 10:56:38;;;;;;;62.30;30.25;;;6.70;99.90;;;;;;5073181;28;20191;-84
2022/01/26 10:59:04;;;;;;;61.25;30.60;;;6.70;99.90;;;;;;5069522;28;20192;-84
2022/01/26 11:01:30;;;;;;;61.83;32.00;;;6.70;99.90;;;;;;5086241;28;20214;-85
2022/01/26 11:03:55;;;;;;;62.93;31.63;;;6.70;99.90;;;;;;5074160;28;20609;-85
2022/01/26 11:06:21;;;;;;;64.57;32.93;;;6.70;99.90;;;;;;5090693;28;20168;-87
2022/01/26 11:08:48;;;;;;;56.17;32.10;;;6.70;99.90;;;;;;5072912;28;20175;-86
2022/01/26 11:11:19;;;;;;;53.97;28.60;;;6.70;99.90;;;;;;5079766;28;21174;-85
2022/01/26 11:13:45;;;;;;;69.07;36.45;;;6.70;99.90;;;;;;5076120;28;20712;-84
2022/01/26 11:16:13;;;;;;;71.80;34.63;;;6.70;99.90;;;;;;5076312;28;20551;-84
2022/01/26 11:18:53;;;;;;;63.78;33.03;;;6.70;99.90;;;;;;5074077;28;20191;-83
2022/01/26 11:21:35;;;;;;;64.85;31.08;;;6.80;99.90;;;;;;5072978;28;20619;-84
2022/01/26 11:24:06;;;;;;;62.03;30.10;;;6.80;99.90;;;;;;5092178;28;20199;-84
2022/01/26 11:26:34;;;;;;;66.15;31.42;;;6.90;99.90;;;;;;5091952;28;20616;-85
2022/01/26 11:29:00;;;;;;;56.15;30.20;;;6.90;99.90;;;;;;5084578;28;20171;-85
2022/01/26 11:31:28;;;;;;;62.25;30.38;;;6.90;99.90;;;;;;5058671;28;20671;-84
2022/01/26 11:33:55;;;;;;;73.87;42.97;;;7.00;99.90;;;;;;5062589;28;20722;-82
2022/01/26 11:36:21;;;;;;;71.57;38.72;;;6.90;99.90;;;;;;5054019;28;20631;-82
2022/01/26 11:47:18;;;;;;;53.80;29.00;;;7.00;99.90;;;;;;5072450;28;20523;-82
2022/01/26 11:49:44;;;;;;;49.33;26.00;;;7.00;99.90;;;;;;5071367;28;20183;-81
2022/01/26 11:52:25;;;;;;;51.15;25.05;;;7.00;99.90;;;;;;5054090;28;20172;-81
2022/01/26 11:54:54;;;;;;;56.72;28.17;;;7.00;99.90;;;;;;5053503;28;20173;-81
2022/01/26 11:57:36;;;;;;;57.95;27.38;;;7.00;99.90;;;;;;5053398;28;20204;-80
2022/01/26 12:00:07;;;;;;;43.78;24.48;;;7.00;99.90;;;;;;5053032;28;20184;-81
2022/01/26 12:05:15;;;;;;;52.70;26.40;;;7.00;99.90;;;;;;5071121;28;20173;-82
2022/01/26 12:07:56;;;;;;;49.75;27.77;;;7.00;99.90;;;;;;5053851;28;20188;-81
2022/01/26 12:10:29;;;;;;;50.70;26.05;;;7.00;99.90;;;;;;5051478;28;20172;-81
2022/01/26 12:13:05;;;;;;;41.97;23.42;;;7.00;99.90;;;;;;5074990;28;20610;-83
2022/01/26 12:15:41;;;;;;;54.30;25.45;;;7.00;99.90;;;;;;5056244;28;20192;-82
2022/01/26 12:18:28;;;;;;;47.50;25.77;;;7.00;99.90;;;;;;5074935;28;20195;-82
2022/01/26 12:32:42;;;;;;;42.50;23.50;;;7.00;99.90;;;;;;5056409;28;20247;-82
2022/01/26 12:35:34;;;;;;;36.45;19.80;;;7.00;99.90;;;;;;5074479;28;20176;-81
2022/01/26 12:43:39;;;;;;;36.65;19.40;;;7.10;99.90;;;;;;5084728;28;20188;-83
2022/01/26 12:46:12;;;;;;;29.75;17.63;;;7.00;99.90;;;;;;5082758;28;20279;-83
2022/01/26 12:48:40;;;;;;;29.58;17.83;;;7.00;99.90;;;;;;5092690;28;20709;-83
2022/01/26 12:51:08;;;;;;;33.50;17.50;;;7.00;99.90;;;;;;5095673;28;20168;-84
2022/01/26 12:53:37;;;;;;;34.72;19.65;;;7.00;99.90;;;;;;5094760;28;20251;-83
2022/01/26 12:56:11;;;;;;;31.98;16.67;;;7.00;99.90;;;;;;5094415;28;20163;-83
2022/01/26 12:58:39;;;;;;;28.55;17.10;;;7.00;99.90;;;;;;5075121;28;20207;-82
2022/01/26 13:01:07;;;;;;;34.22;18.75;;;7.00;99.90;;;;;;5075024;28;20182;-84
2022/01/26 13:03:35;;;;;;;31.45;17.38;;;7.00;99.90;;;;;;5051355;28;20204;-84
2022/01/26 13:06:22;;;;;;;32.83;18.60;;;7.00;99.90;;;;;;5090288;28;20179;-83
2022/01/26 13:08:52;;;;;;;36.20;20.55;;;7.00;99.90;;;;;;5070311;28;20171;-82
2022/01/26 13:11:33;;;;;;;34.05;19.98;;;6.90;99.90;;;;;;5088787;28;20896;-82
2022/01/26 13:14:14;;;;;;;38.60;20.17;;;6.90;99.90;;;;;;5073904;28;20175;-83
2022/01/26 13:16:58;;;;;;;32.30;19.25;;;6.90;99.90;;;;;;5091976;28;20203;-83
2022/01/26 13:31:08;;;;;;;30.92;18.52;;;7.00;99.90;;;;;;5075133;28;20534;-85
2022/01/26 13:41:25;;;;;;;37.50;21.60;;;7.00;99.90;;;;;;5075409;28;20164;-86
2022/01/26 13:49:40;;;;;;;40.53;22.75;;;7.00;99.90;;;;;;5074100;28;20184;-85
2022/01/26 13:52:20;;;;;;;37.63;20.70;;;7.00;99.90;;;;;;5080585;28;20183;-87
2022/01/26 13:55:02;;;;;;;43.20;21.75;;;7.10;99.90;;;;;;5075554;28;20172;-88
2022/01/26 13:57:50;;;;;;;38.22;20.40;;;7.10;99.90;;;;;;5072143;28;20206;-87
2022/01/26 14:00:20;;;;;;;39.72;22.58;;;7.10;99.90;;;;;;5078900;28;20184;-87
2022/01/26 14:02:49;;;;;;;36.85;19.52;;;7.10;99.90;;;;;;5066591;28;20197;-86
2022/01/26 14:05:15;;;;;;;35.80;20.60;;;7.10;99.90;;;;;;5058785;28;20191;-86
2022/01/26 14:07:41;;;;;;;35.17;19.20;;;7.10;99.90;;;;;;5076163;28;20235;-87
2022/01/26 14:10:07;;;;;;;31.07;20.10;;;7.10;99.90;;;;;;5072968;28;20172;-86
2022/01/26 14:12:39;;;;;;;37.72;21.15;;;7.10;99.90;;;;;;5082062;28;20164;-87
2022/01/26 14:15:08;;;;;;;40.50;22.98;;;7.10;99.90;;;;;;5067480;28;20541;-86
2022/01/26 14:18:01;;;;;;;37.10;22.20;;;7.10;99.90;;;;;;5064763;28;20552;-86
2022/01/26 14:25:38;;;;;;;38.05;21.38;;;7.00;99.90;;;;;;5094618;28;20171;-88
2022/01/26 14:28:08;;;;;;;35.38;21.30;;;7.00;99.90;;;;;;5058555;28;20196;-86
2022/01/26 14:30:43;;;;;;;40.97;22.45;;;7.00;99.90;;;;;;5092276;28;20168;-86
2022/01/26 14:33:30;;;;;;;35.97;21.25;;;7.00;99.90;;;;;;5079177;28;20614;-86
2022/01/26 14:52:55;;;;;;;35.45;18.48;;;7.00;99.90;;;;;;5079869;28;20198;-86
2022/01/26 15:00:50;;;;;;;38.17;21.20;;;7.00;99.90;;;;;;5075293;28;20167;-83
2022/01/26 15:12:11;;;;;;;34.28;18.00;;;6.90;99.90;;;;;;5092708;28;20221;-82
2022/01/26 15:44:19;;;;;;;38.55;20.85;;;6.80;99.90;;;;;;5055601;28;20196;-79
2022/01/26 16:08:06;;;;;;;30.00;17.23;;;6.70;99.90;;;;;;5085574;28;20293;-79
2022/01/26 16:35:36;;;;;;;44.28;26.25;;;6.60;99.90;;;;;;5057186;28;20184;-80
2022/01/26 16:38:14;;;;;;;45.00;25.70;;;6.60;99.90;;;;;;5064037;28;20233;-79
2022/01/26 17:03:22;;;;;;;32.38;19.23;;;6.50;99.90;;;;;;5057776;28;20184;-80
2022/01/26 17:11:23;;;;;;;35.70;18.80;;;6.50;99.90;;;;;;5076563;28;20171;-80
2022/01/26 17:25:51;;;;;;;34.42;19.70;;;6.60;99.90;;;;;;5060361;28;20212;-80
2022/01/26 18:38:58;;;;;;;25.30;14.70;;;6.50;99.90;;;;;;5058762;28;20203;-82
2022/01/26 18:49:32;;;;;;;19.90;11.87;;;6.50;99.90;;;;;;5096311;28;20176;-81
2022/01/26 18:51:59;;;;;;;29.38;15.05;;;6.50;99.90;;;;;;5092395;28;20163;-81
2022/01/26 18:54:30;;;;;;;24.92;16.55;;;6.50;99.90;;;;;;5075306;28;20171;-80
2022/01/26 18:56:58;;;;;;;24.83;14.65;;;6.50;99.90;;;;;;5096989;28;20195;-81
2022/01/26 18:59:25;;;;;;;26.27;14.48;;;6.50;99.90;;;;;;5090719;28;20176;-81
2022/01/26 19:01:54;;;;;;;27.95;16.05;;;6.50;99.90;;;;;;5072952;28;20639;-81
2022/01/26 19:04:25;;;;;;;26.38;15.60;;;6.50;99.90;;;;;;5068388;28;20597;-81
2022/01/26 19:06:52;;;;;;;23.75;13.73;;;6.50;99.90;;;;;;5091064;28;20233;-77
2022/01/26 19:09:23;;;;;;;24.38;13.80;;;6.50;99.90;;;;;;5066305;28;20562;-80
2022/01/26 19:11:50;;;;;;;25.40;15.02;;;6.50;99.90;;;;;;5034749;28;20184;-80
2022/01/26 19:14:17;;;;;;;21.55;14.27;;;6.40;99.90;;;;;;5062670;28;20176;-81